Haynes, AR (72341)

6:24 PM CST en Enero 29, 2015 (GMT -0600)
marianna,arrkansas | Change Station
CLOSE
Current Station
Estación meteorológica personal
Location: Marianna, AR
Altura: 230 ft
Estaciones meteorológicas cercanas

Alt 230 ft 34.77 °N, 90.77 °W | Updated 3 minutes ago

Nublado
Nublado
46.2 ° F
Sensación térmica 40 ° F
N
13.5
Viento Variable Viento desde NE

Hoy
Alta -- | Baja -- ° F
--% Posibilidad de precipitaciones
Ayer
Alta -- | Baja -- ° F
Precip. -- pul
7:03 AM 5:28 PM
Gibosa creciente, 78% visible
Presión 30.32 pul
Visibilidad 10.0 Millas
Nubes Muy nublado 2900 ft
Muy nublado 3500 ft
Vientos helados 40 ° F
Punto de rocío 37 ° F
Humedad 71%
Precipitaciones 0.00 pul
Espesor de la nieve No disponible.
UV 0 de una escala de 12
Polen 3.00 de una escala de 12
Calidad del aire No disponible.
Flu Activity No disponible.
METAR KUTA 300015Z AUTO 34014KT 10SM BKN029 BKN035 08/02 A3032 RMK AO2

More Conditions Fewer Conditions

Presión 30.32 pul
Visibilidad 10.0 Millas
Nubes Muy nublado 2900 ft
Muy nublado 3500 ft
Vientos helados 40 ° F
Punto de rocío 37 ° F
Humedad 71%
Precipitaciones 0.00 pul
Espesor de la nieve No disponible.
UV 0 de una escala de 12
Polen 3.00 de una escala de 12
Calidad del aire No disponible.
Flu Activity No disponible.
METAR KUTA 300015Z AUTO 34014KT 10SM BKN029 BKN035 08/02 A3032 RMK AO2

More Conditions Fewer Conditions

10-Day Weather Forecast

Almanac

Astronomía

Jan. 29, 2015 Salida Puesta
Hora real
Crepúsculo civil
Crepúsculo náutico
Crepúsculo astronómico
Luna
Horas de luz
Horas de luz
Tomorrow will be .
, % of the Moon is Illuminated

Extremos de hoy

Máximos del estado Bajos del estado

Community

WunderPhotos

Upload Photos

1,791,651 ¡fotos cargadas!

WunderBlogs® & News

Nearby

Calidad del aire

  Calidad del aire Índice AQ Contaminante
Not available.

Grosos de nieve

Estación Profundido Altura

Actividad de terremotos

Ciudad Distance Mag. Tiempo y dato
Magnitud mínima muestra es 2,5.

Temperaturas de aguas costeras

Lugar Temperatura

Estaciones meteorológicas cercanas